createdAt,value
2018-11-26T00:00:32.866Z,90.57
2018-11-26T00:01:13.421Z,90.19
2018-11-26T00:01:53.978Z,90.1
2018-11-26T00:02:34.530Z,90.38
2018-11-26T00:03:15.095Z,90.1
2018-11-26T00:03:55.649Z,89.81
2018-11-26T00:04:36.206Z,90
2018-11-26T00:05:16.758Z,89.81
2018-11-26T00:05:57.326Z,90.1
2018-11-26T00:06:37.885Z,89.81
2018-11-26T00:07:18.455Z,89.72
2018-11-26T00:07:59.014Z,90
2018-11-26T00:08:39.585Z,90
2018-11-26T00:09:20.166Z,90
2018-11-26T00:10:00.734Z,90.19
2018-11-26T00:10:41.297Z,89.81
2018-11-26T00:11:21.857Z,90
2018-11-26T00:12:02.420Z,89.81
2018-11-26T00:12:42.993Z,89.91
2018-11-26T00:13:23.557Z,90
2018-11-26T00:14:04.110Z,89.81
2018-11-26T00:14:44.675Z,90
2018-11-26T00:15:25.231Z,89.81
2018-11-26T00:16:05.793Z,89.91
2018-11-26T00:16:46.355Z,90
2018-11-26T00:17:26.911Z,89.72
2018-11-26T00:18:07.458Z,89.53
2018-11-26T00:18:48.011Z,88.96
2018-11-26T00:19:28.570Z,89.15
2018-11-26T00:20:09.136Z,88.96
2018-11-26T00:20:49.697Z,89.06
2018-11-26T00:21:30.255Z,89.15
2018-11-26T00:22:10.810Z,88.77
2018-11-26T00:22:51.364Z,89.15
2018-11-26T00:23:31.935Z,88.39
2018-11-26T00:24:12.494Z,88.48
2018-11-26T00:24:53.052Z,89.15
2018-11-26T00:25:33.614Z,88.96
2018-11-26T00:26:14.172Z,88.96
2018-11-26T00:26:54.729Z,88.96
2018-11-26T00:27:35.290Z,89.15
2018-11-26T00:28:15.839Z,88.96
2018-11-26T00:28:56.414Z,88.87
2018-11-26T00:29:36.973Z,88.96
2018-11-26T00:30:17.535Z,88.87
2018-11-26T00:30:58.112Z,89.25
2018-11-26T00:31:38.671Z,88.48
2018-11-26T00:32:19.238Z,88.48
2018-11-26T00:32:59.802Z,88.68
2018-11-26T00:33:40.365Z,88.96
2018-11-26T00:34:20.922Z,88.77
2018-11-26T00:35:01.510Z,88.77
2018-11-26T00:35:42.085Z,88.58
2018-11-26T00:36:22.656Z,88.68
2018-11-26T00:37:03.226Z,88.58
2018-11-26T00:37:43.774Z,88.92
2018-11-26T00:38:24.340Z,88.58
2018-11-26T00:39:04.901Z,88.44
2018-11-26T00:39:45.483Z,88.44
2018-11-26T00:40:26.049Z,88.58
2018-11-26T00:41:06.615Z,89.25
2018-11-26T00:41:47.189Z,89.06
2018-11-26T00:42:27.744Z,88.92
2018-11-26T00:43:08.295Z,88.68
2018-11-26T00:43:48.858Z,88.54
2018-11-26T00:44:29.403Z,88.68
2018-11-26T00:45:09.971Z,88.54
2018-11-26T00:45:50.537Z,88.16
2018-11-26T00:46:31.093Z,88.35
2018-11-26T00:47:11.650Z,88.82
2018-11-26T00:47:52.199Z,88.54
2018-11-26T00:48:32.768Z,88.73
2018-11-26T00:49:13.356Z,88.54
2018-11-26T00:49:53.910Z,88.44
2018-11-26T00:50:34.476Z,88.73
2018-11-26T00:51:15.042Z,88.44
2018-11-26T00:51:55.606Z,88.54
2018-11-26T00:52:36.161Z,88.63
2018-11-26T00:53:16.718Z,88.73
2018-11-26T00:53:57.277Z,88.92
2018-11-26T00:54:37.864Z,88.63
2018-11-26T00:55:18.401Z,88.82
2018-11-26T00:55:58.956Z,88.54
2018-11-26T00:56:39.503Z,88.63
2018-11-26T00:57:20.062Z,88.25
2018-11-26T00:58:00.638Z,88.06
2018-11-26T00:58:41.205Z,87.87
2018-11-26T00:59:21.766Z,88.06
2018-11-26T01:00:02.325Z,88.54
2018-11-26T01:00:42.881Z,88.16
2018-11-26T01:01:23.448Z,87.97
2018-11-26T01:02:04.011Z,88.16
2018-11-26T01:02:44.582Z,88.44
2018-11-26T01:03:25.142Z,88.16
2018-11-26T01:04:05.704Z,88.16
2018-11-26T01:04:46.272Z,88.06
2018-11-26T01:05:26.843Z,87.77
2018-11-26T01:06:07.395Z,88.06
2018-11-26T05:21:31.634Z,87.02
2018-11-26T05:22:12.186Z,86.69
2018-11-26T05:22:52.745Z,86.88
2018-11-26T05:23:33.383Z,86.22
2018-11-26T05:24:13.934Z,86.69
2018-11-26T05:24:54.489Z,86.88
2018-11-26T05:25:35.053Z,86.88
2018-11-26T05:26:15.607Z,87.07
2018-11-26T05:26:56.157Z,86.88
2018-11-26T05:27:36.709Z,86.98
2018-11-26T05:28:17.270Z,86.88
2018-11-26T05:28:57.810Z,86.79
2018-11-26T05:29:38.373Z,86.79
2018-11-26T05:30:18.921Z,86.88
2018-11-26T05:30:59.484Z,86.88
2018-11-26T05:31:40.040Z,87.26
2018-11-26T05:32:20.592Z,87.16
2018-11-26T05:33:01.148Z,87.07
2018-11-26T05:33:41.704Z,87.16
2018-11-26T05:34:22.260Z,87.16
2018-11-26T05:35:02.820Z,87.16
2018-11-26T05:35:43.373Z,87.16
2018-11-26T05:36:23.927Z,86.88
2018-11-26T05:37:04.498Z,86.79
2018-11-26T05:37:46.514Z,86.98
2018-11-26T05:38:28.777Z,86.88
2018-11-26T05:39:09.399Z,86.69
2018-11-26T05:39:49.956Z,86.79
2018-11-26T05:40:31.744Z,86.88
2018-11-26T05:41:12.305Z,86.98
2018-11-26T05:41:52.863Z,86.98
2018-11-26T05:42:33.444Z,86.69
2018-11-26T05:43:14.005Z,86.79
2018-11-26T05:43:54.586Z,86.79
2018-11-26T05:44:36.555Z,86.88
2018-11-26T05:45:17.112Z,86.98
2018-11-26T05:45:57.719Z,86.88
2018-11-26T05:46:38.275Z,86.79
2018-11-26T05:47:18.833Z,86.79
2018-11-26T05:47:59.403Z,86.69
2018-11-26T05:48:40.026Z,86.79
2018-11-26T05:49:20.584Z,87.07
2018-11-26T05:50:01.139Z,87.64
2018-11-26T05:50:41.700Z,87.35
2018-11-26T05:51:23.564Z,87.26
2018-11-26T05:52:03.075Z,87.45
2018-11-26T05:52:44.406Z,87.54
2018-11-26T05:53:24.968Z,87.83
2018-11-26T05:54:05.533Z,87.83
2018-11-26T05:54:46.095Z,88.11
2018-11-26T05:55:26.653Z,87.83
2018-11-26T05:56:07.223Z,87.54
2018-11-26T05:56:47.780Z,87.83
2018-11-26T05:57:28.455Z,87.83
2018-11-26T05:58:09.038Z,87.92
2018-11-26T05:58:49.600Z,87.73
2018-11-26T05:59:30.182Z,87.54
2018-11-26T06:00:10.802Z,87.83
2018-11-26T06:00:51.362Z,88.02
2018-11-26T06:01:31.923Z,88.21
2018-11-26T06:02:12.478Z,88.4
2018-11-26T06:02:53.032Z,88.21
2018-11-26T06:03:33.594Z,88.21
2018-11-26T06:04:14.160Z,88.02
2018-11-26T06:04:54.721Z,88.4
2018-11-26T06:05:35.281Z,88.21
2018-11-26T06:06:15.845Z,88.4
2018-11-26T06:06:56.409Z,88.11
2018-11-26T06:07:36.969Z,88.21
2018-11-26T06:08:17.525Z,88.21
2018-11-26T06:08:58.096Z,88.21
2018-11-26T06:09:38.650Z,88.02
2018-11-26T06:10:19.208Z,88.4
2018-11-26T06:10:59.762Z,87.83
2018-11-26T06:11:40.309Z,88.02
2018-11-26T06:12:20.865Z,88.3
2018-11-26T06:13:01.434Z,88.4
2018-11-26T06:13:41.999Z,88.21
2018-11-26T06:14:22.554Z,88.78
2018-11-26T06:15:03.126Z,88.68
2018-11-26T06:15:43.689Z,88.78
2018-11-26T06:16:24.250Z,88.49
2018-11-26T06:17:04.801Z,88.3
2018-11-26T06:17:45.357Z,88.49
2018-11-26T06:18:25.915Z,89.06
2018-11-26T06:19:06.488Z,88.96
2018-11-26T06:19:47.060Z,89.11
2018-11-26T06:20:27.618Z,89.01
2018-11-26T06:21:08.172Z,88.82
2018-11-26T06:21:48.734Z,89.06
2018-11-26T06:22:29.287Z,88.49
2018-11-26T06:23:09.846Z,88.59
2018-11-26T06:23:50.401Z,88.68
2018-11-26T06:24:30.956Z,88.4
2018-11-26T06:25:11.517Z,88.78
2018-11-26T06:25:52.085Z,92.33
2018-11-26T06:26:32.644Z,97.45
2018-11-26T06:27:13.231Z,99.82
2018-11-26T06:27:53.791Z,99.99
2018-11-26T06:28:34.349Z,99.99
2018-11-26T06:29:14.917Z,99.99
2018-11-26T06:29:55.476Z,99.16
2018-11-26T06:30:36.034Z,97.22
2018-11-26T06:31:16.597Z,95.7
2018-11-26T06:31:57.179Z,93.32
2018-11-26T06:32:37.734Z,89.72
2018-11-26T06:33:18.299Z,88.05
2018-11-26T06:33:58.866Z,87.38
2018-11-26T06:34:42.460Z,86.72
2018-11-26T06:35:19.988Z,85.3
2018-11-26T06:36:00.554Z,83.78
2018-11-26T06:36:41.159Z,82.54
2018-11-26T06:37:21.731Z,82.29
2018-11-26T06:38:02.288Z,82.01
2018-11-26T06:38:42.841Z,82.39
2018-11-26T06:39:23.452Z,81.73
2018-11-26T06:40:04.013Z,80.77
2018-11-26T06:40:44.575Z,80.11
2018-11-26T06:41:25.110Z,79.11
2018-11-26T06:42:05.677Z,78.53
2018-11-26T06:42:46.263Z,77.87
2018-11-26T06:43:26.843Z,77.01
2018-11-26T06:44:07.407Z,75.78
2018-11-26T06:44:47.967Z,73.3
2018-11-26T06:45:28.520Z,72.26
2018-11-26T06:46:09.080Z,71.66
2018-11-26T06:46:49.639Z,71.56
2018-11-26T06:47:30.203Z,72.03
2018-11-26T06:48:10.764Z,72.28
2018-11-26T06:48:51.319Z,73.33
2018-11-26T06:49:31.897Z,73.8
2018-11-26T06:50:12.462Z,74.43
2018-11-26T06:50:53.031Z,74.81
2018-11-26T06:51:33.587Z,75.76
2018-11-26T06:52:14.157Z,76.8
2018-11-26T06:52:54.721Z,76.8
2018-11-26T06:53:35.282Z,78.09
2018-11-26T06:54:15.838Z,78.47
2018-11-26T06:54:56.393Z,78.85
2018-11-26T06:55:36.961Z,79.71
2018-11-26T06:56:17.524Z,80.08
2018-11-26T06:56:58.077Z,80.37
2018-11-26T06:57:38.634Z,80.37
2018-11-26T06:58:19.199Z,80.94
2018-11-26T06:58:59.761Z,81.09
2018-11-26T06:59:40.323Z,81.47
2018-11-26T07:00:20.872Z,81.56
2018-11-26T07:01:01.427Z,82.13
2018-11-26T07:01:41.979Z,82.04
2018-11-26T07:02:22.552Z,82.13
2018-11-26T07:03:03.108Z,82.42
2018-11-26T07:03:43.674Z,82.32
2018-11-26T07:04:24.230Z,82.79
2018-11-26T07:05:04.797Z,82.79
2018-11-26T07:05:45.352Z,82.98
2018-11-26T07:06:25.904Z,83.27
2018-11-26T07:07:06.489Z,83.27
2018-11-26T07:07:47.045Z,83.84
2018-11-26T07:08:27.640Z,83.84
2018-11-26T07:09:08.698Z,84.22
2018-11-26T07:09:48.753Z,84.03
2018-11-26T07:10:29.337Z,84.31
2018-11-26T07:11:09.897Z,84.12
2018-11-26T07:11:50.455Z,84.69
2018-11-26T07:12:31.012Z,84.78
2018-11-26T07:13:11.565Z,84.78
2018-11-26T07:13:52.121Z,84.84
2018-11-26T07:14:32.686Z,85.03
2018-11-26T07:15:13.258Z,84.94
2018-11-26T07:15:53.816Z,85.45
2018-11-26T07:16:34.376Z,85.78
2018-11-26T07:17:14.937Z,85.78
2018-11-26T07:17:55.495Z,85.78
2018-11-26T07:18:36.112Z,85.6
2018-11-26T07:19:16.676Z,85.97
2018-11-26T07:19:57.238Z,85.97
2018-11-26T07:20:37.787Z,86.16
2018-11-26T07:21:18.395Z,86.45
2018-11-26T07:21:58.967Z,85.97
2018-11-26T07:22:39.535Z,86.45
2018-11-26T07:23:20.089Z,86.74
2018-11-26T07:24:00.643Z,86.55
2018-11-26T07:24:41.224Z,86.74
2018-11-26T07:25:21.779Z,86.55
2018-11-26T07:26:02.338Z,87.12
2018-11-26T07:26:42.894Z,86.74
2018-11-26T07:27:23.458Z,86.64
2018-11-26T07:28:04.022Z,86.74
2018-11-26T07:28:44.587Z,86.93
2018-11-26T07:29:25.149Z,86.83
2018-11-26T07:30:05.710Z,87.02
2018-11-26T07:30:46.269Z,87.02
2018-11-26T07:31:26.822Z,86.83
2018-11-26T07:32:07.384Z,86.74
2018-11-26T07:32:47.942Z,86.93
2018-11-26T07:33:28.506Z,86.93
2018-11-26T07:34:09.120Z,86.93
2018-11-26T07:34:49.682Z,87.21
2018-11-26T07:35:30.473Z,87.21
2018-11-26T07:36:11.373Z,86.93
2018-11-26T07:36:51.589Z,86.74
2018-11-26T07:37:32.152Z,86.93
2018-11-26T07:38:12.843Z,86.83
2018-11-26T07:38:53.414Z,86.74
2018-11-26T07:39:33.970Z,87.21
2018-11-26T07:40:14.530Z,86.74
2018-11-26T07:40:55.123Z,87.49
2018-11-26T07:41:35.689Z,87.21
2018-11-26T07:42:16.266Z,87.3
2018-11-26T07:42:56.822Z,87.3
2018-11-26T07:43:37.383Z,87.59
2018-11-26T07:44:17.947Z,87.87
2018-11-26T07:44:58.524Z,87.97
2018-11-26T07:45:39.076Z,87.4
2018-11-26T07:46:19.640Z,87.77
2018-11-26T07:47:00.199Z,87.77
2018-11-26T07:47:40.755Z,87.87
2018-11-26T07:48:21.313Z,87.68
2018-11-26T07:49:02.056Z,87.59
2018-11-26T07:49:42.609Z,87.59
2018-11-26T07:50:23.174Z,87.87
2018-11-26T07:51:03.739Z,87.68
2018-11-26T07:51:44.305Z,87.49
2018-11-26T07:52:24.922Z,87.97
2018-11-26T07:53:05.490Z,88.44
2018-11-26T07:53:46.044Z,88.06
2018-11-26T07:54:26.606Z,88.16
2018-11-26T07:55:07.175Z,88.25
2018-11-26T07:55:47.733Z,88.82
2018-11-26T07:56:28.314Z,88.73
2018-11-26T07:57:08.885Z,88.63
2018-11-26T07:57:49.451Z,88.92
2018-11-26T07:58:30.009Z,88.92
2018-11-26T07:59:10.575Z,88.06
2018-11-26T07:59:51.130Z,88.06
2018-11-26T08:00:31.692Z,88.82
2018-11-26T08:01:12.243Z,88.82
2018-11-26T08:01:52.807Z,88.44
2018-11-26T08:02:33.399Z,88.63
2018-11-26T08:03:13.957Z,88.06
2018-11-26T08:03:54.511Z,88.16
2018-11-26T08:04:35.079Z,88.16
2018-11-26T08:05:15.643Z,88.06
2018-11-26T08:05:56.200Z,87.97
2018-11-26T08:06:36.760Z,88.16
2018-11-26T08:07:17.319Z,88.63
2018-11-26T08:07:57.883Z,88.82
2018-11-26T08:08:38.438Z,88.35
2018-11-26T08:09:18.995Z,88.73
2018-11-26T08:09:59.566Z,88.73
2018-11-26T08:10:40.109Z,88.44
2018-11-26T08:11:20.676Z,88.92
2018-11-26T08:12:01.249Z,88.25
2018-11-26T08:12:41.818Z,88.35
2018-11-26T08:13:22.367Z,88.16
2018-11-26T08:14:02.916Z,88.92
2018-11-26T08:14:43.482Z,88.73
2018-11-26T08:15:24.040Z,88.54
2018-11-26T08:16:04.603Z,88.44
2018-11-26T08:16:45.175Z,88.25
2018-11-26T08:17:25.742Z,88.63
2018-11-26T08:18:06.302Z,88.63
2018-11-26T08:18:46.862Z,88.73
2018-11-26T08:19:27.419Z,88.63
2018-11-26T08:20:07.981Z,88.73
2018-11-26T08:20:48.541Z,88.06
2018-11-26T08:21:29.108Z,88.25
2018-11-26T08:22:09.664Z,88.25
2018-11-26T08:22:50.218Z,88.82
2018-11-26T08:23:30.776Z,88.54
2018-11-26T08:24:11.344Z,88.44
2018-11-26T08:24:51.942Z,89.2
2018-11-26T08:25:32.488Z,89.2
2018-11-26T08:26:13.053Z,88.25
2018-11-26T08:26:53.625Z,88.44
2018-11-26T08:27:34.183Z,88.44
2018-11-26T08:28:14.737Z,88.44
2018-11-26T08:28:55.304Z,88.25
2018-11-26T08:29:35.860Z,88.92
2018-11-26T08:30:16.452Z,88.82
2018-11-26T08:30:57.008Z,88.73
2018-11-26T08:31:37.574Z,88.73
2018-11-26T08:32:18.134Z,88.82
2018-11-26T08:34:31.066Z,88.16
2018-11-26T08:35:11.645Z,88.63
2018-11-26T08:35:52.199Z,88.35
2018-11-26T08:36:32.783Z,88.63
2018-11-26T08:37:13.505Z,88.44
2018-11-26T08:37:54.067Z,88.82
2018-11-26T08:38:34.629Z,88.63
2018-11-26T08:39:15.195Z,88.16
2018-11-26T08:39:55.749Z,88.63
2018-11-26T08:40:36.344Z,88.44
2018-11-26T08:41:16.897Z,88.54
2018-11-26T08:41:57.463Z,88.73
2018-11-26T08:42:38.017Z,88.82
2018-11-26T08:43:18.606Z,88.82
2018-11-26T08:43:59.158Z,88.63
2018-11-26T08:44:39.760Z,88.44
2018-11-26T08:45:20.419Z,88.63
2018-11-26T08:46:00.970Z,89.2
2018-11-26T08:46:41.521Z,89.11
2018-11-26T08:47:22.105Z,89.01
2018-11-26T08:48:02.668Z,89.11
2018-11-26T08:48:43.204Z,88.92
2018-11-26T08:49:23.770Z,89.01
2018-11-26T08:50:04.327Z,89.01
2018-11-26T08:50:44.889Z,89.11
2018-11-26T08:51:25.447Z,89.29
2018-11-26T08:52:06.019Z,89.48
2018-11-26T08:52:46.581Z,89.48
2018-11-26T08:53:27.357Z,89.29
2018-11-26T08:54:07.729Z,89.77
2018-11-26T08:54:48.309Z,89.48
2018-11-26T08:55:28.881Z,89.29
2018-11-26T08:56:09.459Z,89.48
2018-11-26T08:56:50.024Z,89.58
2018-11-26T08:57:30.599Z,89.48
2018-11-26T08:58:11.361Z,89.58
2018-11-26T08:58:51.917Z,89.2
2018-11-26T08:59:32.485Z,89.58
2018-11-26T09:00:13.312Z,89.29
2018-11-26T09:00:54.038Z,89.01
2018-11-26T09:01:34.765Z,88.92
2018-11-26T09:02:15.582Z,89.01
2018-11-26T09:02:56.120Z,88.92
2018-11-26T09:03:36.674Z,88.82
2018-11-26T09:04:17.226Z,89.01
2018-11-26T09:04:57.780Z,89.11
2018-11-26T09:05:38.333Z,88.92
2018-11-26T09:06:18.900Z,89.11
2018-11-26T09:06:59.448Z,88.73
2018-11-26T09:07:39.999Z,88.73
2018-11-26T09:08:20.553Z,89.01
2018-11-26T09:09:01.147Z,89.11
2018-11-26T09:09:41.713Z,89.01
2018-11-26T09:10:22.278Z,89.11
2018-11-26T09:11:02.846Z,88.73
2018-11-26T09:11:43.390Z,88.92
2018-11-26T09:12:23.972Z,89.01
2018-11-26T09:13:04.526Z,88.92
2018-11-26T09:13:45.081Z,88.92
2018-11-26T09:14:25.712Z,88.73
2018-11-26T09:15:06.238Z,89.11
2018-11-26T09:15:46.792Z,88.82
2018-11-26T09:16:27.339Z,88.92
2018-11-26T09:17:07.884Z,88.92
2018-11-26T09:17:48.442Z,88.92
2018-11-26T09:18:29.007Z,88.82
2018-11-26T09:19:09.600Z,89.11
2018-11-26T09:19:50.146Z,89.11
2018-11-26T09:20:30.716Z,89.01
2018-11-26T09:21:11.277Z,88.92
2018-11-26T09:21:51.858Z,88.73
2018-11-26T09:22:32.399Z,88.92
2018-11-26T09:23:12.966Z,88.92
2018-11-26T09:23:53.525Z,88.73
2018-11-26T09:24:34.082Z,89.58
2018-11-26T09:25:14.619Z,89.39
2018-11-26T09:25:55.181Z,89.48
2018-11-26T09:26:35.716Z,89.11
2018-11-26T09:27:16.293Z,88.73
2018-11-26T09:27:56.892Z,89.58
2018-11-26T09:28:37.483Z,89.39
2018-11-26T09:29:18.020Z,89.48
2018-11-26T09:29:58.573Z,89.48
2018-11-26T09:30:39.128Z,89.39
2018-11-26T09:31:19.692Z,89.39
2018-11-26T09:32:00.247Z,89.48
2018-11-26T09:32:40.803Z,89.39
2018-11-26T09:33:21.377Z,89.39
2018-11-26T09:34:01.952Z,89.58
2018-11-26T09:34:42.515Z,89.48
2018-11-26T09:35:23.072Z,89.67
2018-11-26T09:36:03.675Z,89.39
2018-11-26T09:36:44.344Z,89.67
2018-11-26T09:37:24.909Z,89.58
2018-11-26T09:38:05.480Z,90.05
2018-11-26T09:38:46.033Z,89.96
2018-11-26T09:39:26.585Z,89.39
2018-11-26T09:40:07.138Z,89.67
2018-11-26T09:40:47.686Z,89.48
2018-11-26T09:41:28.238Z,89.48
2018-11-26T09:42:08.794Z,89.48
2018-11-26T09:42:49.364Z,89.67
2018-11-26T09:43:29.946Z,89.58
2018-11-26T09:44:10.502Z,89.58
2018-11-26T09:44:51.073Z,89.39
2018-11-26T09:45:31.664Z,89.48
2018-11-26T09:46:12.229Z,89.39
2018-11-26T09:46:52.786Z,89.39
2018-11-26T09:47:33.360Z,89.01
2018-11-26T09:48:13.933Z,89.01
2018-11-26T09:48:54.479Z,89.11
2018-11-26T09:49:35.040Z,89.11
2018-11-26T09:50:15.606Z,88.92
2018-11-26T09:50:56.161Z,88.73
2018-11-26T09:51:41.897Z,89.01
2018-11-26T09:52:17.274Z,88.25
2018-11-26T09:52:57.845Z,88.16
2018-11-26T09:53:38.436Z,89.01
2018-11-26T09:54:25.749Z,89.11
2018-11-26T09:54:59.540Z,88.82
2018-11-26T09:55:40.109Z,88.92
2018-11-26T09:56:20.675Z,88.92
2018-11-26T09:57:01.227Z,89.01
2018-11-26T09:57:41.818Z,88.92
2018-11-26T09:58:22.419Z,88.92
2018-11-26T09:59:02.968Z,88.82
2018-11-26T09:59:43.542Z,89.2
2018-11-26T10:00:24.105Z,89.11
2018-11-26T10:01:04.666Z,88.92
2018-11-26T10:01:45.229Z,88.82
2018-11-26T10:02:25.788Z,88.82
2018-11-26T10:03:06.340Z,88.92
2018-11-26T10:03:46.906Z,88.82
2018-11-26T10:04:27.458Z,89.11
2018-11-26T10:05:08.141Z,89.11
2018-11-26T10:05:48.700Z,88.92
2018-11-26T10:06:29.275Z,88.92
2018-11-26T10:07:09.841Z,88.82
2018-11-26T10:07:50.403Z,89.2
2018-11-26T10:08:30.957Z,88.82
2018-11-26T10:09:11.524Z,89.01
2018-11-26T10:09:52.079Z,88.73
2018-11-26T10:10:32.876Z,89.01
2018-11-26T10:11:13.429Z,88.82
2018-11-26T10:11:53.985Z,88.92
2018-11-26T10:12:34.550Z,89.11
2018-11-26T10:13:15.116Z,88.44
2018-11-26T10:13:55.696Z,88.54
2018-11-26T10:14:36.231Z,88.63
2018-11-26T10:15:16.801Z,88.63
2018-11-26T10:15:57.366Z,88.82
2018-11-26T10:16:37.917Z,88.82
2018-11-26T10:17:18.484Z,88.35
2018-11-26T10:17:59.042Z,88.2
2018-11-26T10:18:39.607Z,88.2
2018-11-26T10:19:20.177Z,88.48
2018-11-26T10:20:00.735Z,87.97
2018-11-26T10:20:41.290Z,88.1
2018-11-26T10:21:21.834Z,88.06
2018-11-26T10:22:02.410Z,87.73
2018-11-26T10:22:42.969Z,87.77
2018-11-26T10:23:23.543Z,88.1
2018-11-26T10:24:04.097Z,87.87
2018-11-26T10:24:44.671Z,87.63
2018-11-26T10:25:25.250Z,88.01
2018-11-26T10:26:05.848Z,87.59
2018-11-26T10:26:46.410Z,87.59
2018-11-26T10:27:26.959Z,87.54
2018-11-26T10:28:07.565Z,87.25
2018-11-26T10:28:48.115Z,87.54
2018-11-26T10:29:28.666Z,87.16
2018-11-26T10:30:09.214Z,87.3
2018-11-26T10:30:49.766Z,87.12
2018-11-26T10:31:30.323Z,87.12
2018-11-26T10:32:10.877Z,87.25
2018-11-26T10:32:51.446Z,87.49
2018-11-26T10:33:32.028Z,87.68
2018-11-26T10:34:12.577Z,87.3
2018-11-26T10:34:53.151Z,87.4
2018-11-26T10:35:33.731Z,87.49
2018-11-26T10:36:14.347Z,87.49
2018-11-26T10:36:54.909Z,87.68
2018-11-26T10:37:35.479Z,88.1
2018-11-26T10:38:16.099Z,87.82
2018-11-26T10:38:56.690Z,87.77
2018-11-26T10:39:37.249Z,87.97
2018-11-26T10:40:17.805Z,87.68
2018-11-26T10:40:58.374Z,87.63
2018-11-26T10:41:38.942Z,87.16
2018-11-26T10:42:19.498Z,87.35
2018-11-26T10:43:00.072Z,86.78
2018-11-26T10:43:40.637Z,86.97
2018-11-26T10:44:21.196Z,86.97
2018-11-26T10:45:01.802Z,87.06
2018-11-26T10:45:42.365Z,86.87
2018-11-26T10:46:22.934Z,87.06
2018-11-26T10:47:03.498Z,86.78
2018-11-26T10:47:44.049Z,86.3
2018-11-26T10:48:24.608Z,86.97
2018-11-26T10:49:05.354Z,86.3
2018-11-26T10:49:45.784Z,86.59
2018-11-26T10:50:26.375Z,86.49
2018-11-26T10:51:06.929Z,86.59
2018-11-26T10:51:47.474Z,86.3
2018-11-26T10:52:28.066Z,86.49
2018-11-26T10:53:08.628Z,86.78
2018-11-26T10:53:49.183Z,86.78
2018-11-26T10:54:29.743Z,86.59
2018-11-26T10:55:10.362Z,86.78
2018-11-26T10:55:50.918Z,86.78
2018-11-26T10:56:31.472Z,87.25
2018-11-26T10:57:12.032Z,86.87
2018-11-26T10:57:52.685Z,86.68
2018-11-26T10:58:33.235Z,86.97
2018-11-26T10:59:13.790Z,86.78
2018-11-26T10:59:54.344Z,86.68
2018-11-26T11:00:34.900Z,86.78
2018-11-26T11:01:15.466Z,86.87
2018-11-26T11:01:56.035Z,86.78
2018-11-26T11:02:36.692Z,86.3
2018-11-26T11:03:17.293Z,86.21
2018-11-26T11:03:57.875Z,85.83
2018-11-26T11:04:38.468Z,86.02
2018-11-26T11:05:19.052Z,85.83
2018-11-26T11:05:59.605Z,86.11
2018-11-26T11:06:40.203Z,86.49
2018-11-26T11:07:21.014Z,85.83
2018-11-26T11:08:01.555Z,86.02
2018-11-26T11:08:42.123Z,85.64
2018-11-26T11:09:22.691Z,85.64
2018-11-26T11:10:03.282Z,86.02
2018-11-26T11:10:43.844Z,85.93
2018-11-26T11:11:24.389Z,85.83
2018-11-26T11:12:04.940Z,85.64
2018-11-26T11:12:45.498Z,85.74
2018-11-26T11:13:26.097Z,85.93
2018-11-26T11:14:06.652Z,85.93
2018-11-26T11:14:47.213Z,84.98
2018-11-26T11:15:27.768Z,85.07
2018-11-26T11:16:08.316Z,85.36
2018-11-26T11:16:48.902Z,85.07
2018-11-26T11:17:29.437Z,85.17
2018-11-26T11:18:10.012Z,86.02
2018-11-26T11:18:50.581Z,86.02
2018-11-26T11:19:31.166Z,86.02
2018-11-26T11:20:11.742Z,85.74
2018-11-26T11:20:52.292Z,85.64
2018-11-26T11:21:32.864Z,86.02
2018-11-26T11:22:13.422Z,85.74
2018-11-26T11:22:53.979Z,85.83
2018-11-26T11:23:34.546Z,85.93
2018-11-26T11:24:15.094Z,85.93
2018-11-26T11:24:55.656Z,85.83
2018-11-26T11:25:36.212Z,85.93
2018-11-26T11:26:16.774Z,86.11
2018-11-26T11:26:57.347Z,85.07
2018-11-26T11:27:37.914Z,85.17
2018-11-26T11:28:18.722Z,84.78
2018-11-26T11:28:59.286Z,84.78
2018-11-26T11:29:39.844Z,84.78
2018-11-26T11:30:20.412Z,85.07
2018-11-26T11:31:01.004Z,84.98
2018-11-26T11:31:41.570Z,85.07
2018-11-26T11:32:22.138Z,84.78
2018-11-26T11:35:51.259Z,84.98
2018-11-26T11:36:31.858Z,84.78
2018-11-26T11:37:12.414Z,84.78
2018-11-26T11:37:52.978Z,84.78
2018-11-26T11:38:33.555Z,84.69
2018-11-26T11:39:14.115Z,84.31
2018-11-26T11:39:54.677Z,84.31
2018-11-26T11:40:35.239Z,84.31
2018-11-26T11:41:15.818Z,84.12
2018-11-26T11:41:56.396Z,84.03
2018-11-26T11:42:36.957Z,83.94
2018-11-26T11:43:17.524Z,83.94
2018-11-26T11:43:58.084Z,84.31
2018-11-26T11:44:38.642Z,84.41
2018-11-26T11:45:19.196Z,84.12
2018-11-26T11:45:59.749Z,83.74
2018-11-26T11:46:40.353Z,83.74
2018-11-26T11:47:20.968Z,83.94
2018-11-26T11:48:01.519Z,83.65
2018-11-26T11:48:42.093Z,83.65
2018-11-26T11:49:22.653Z,83.46
2018-11-26T11:50:03.204Z,83.65
2018-11-26T11:50:43.762Z,83.74
2018-11-26T11:51:24.324Z,83.46
2018-11-26T11:52:04.874Z,84.12
2018-11-26T11:52:45.438Z,83.94
2018-11-26T11:53:25.990Z,84.12
2018-11-26T11:54:06.547Z,84.03
2018-11-26T11:54:47.098Z,83.55
2018-11-26T11:55:27.654Z,83.74
2018-11-26T11:56:08.217Z,83.74
2018-11-26T11:56:48.768Z,83.27
2018-11-26T11:57:29.372Z,83.84
2018-11-26T11:58:09.931Z,83.55
2018-11-26T11:58:50.483Z,83.74
2018-11-26T11:59:31.076Z,83.55
2018-11-26T12:00:11.644Z,83.65
2018-11-26T12:00:52.190Z,84.12
2018-11-26T12:01:32.749Z,84.03
2018-11-26T12:02:15.959Z,83.55
2018-11-26T12:02:53.871Z,83.65
2018-11-26T12:03:34.419Z,83.55
2018-11-26T12:04:15.052Z,83.65
2018-11-26T12:04:55.628Z,83.36
2018-11-26T12:05:36.182Z,83.84
2018-11-26T12:06:16.739Z,83.46
2018-11-26T12:06:57.332Z,83.55
2018-11-26T12:07:37.900Z,83.84
2018-11-26T12:08:18.470Z,83.84
2018-11-26T12:08:59.031Z,84.31
2018-11-26T12:09:39.596Z,84.22
2018-11-26T12:10:20.156Z,84.22
2018-11-26T12:11:00.722Z,83.94
2018-11-26T12:11:41.292Z,84.12
2018-11-26T12:12:21.844Z,84.22
2018-11-26T12:13:02.421Z,83.74
2018-11-26T12:13:42.985Z,83.94
2018-11-26T12:14:23.548Z,84.03
2018-11-26T12:15:04.115Z,84.22
2018-11-26T12:15:44.668Z,84.03
2018-11-26T12:16:25.226Z,84.31
2018-11-26T12:17:05.773Z,84.31
2018-11-26T12:17:46.345Z,83.46
2018-11-26T12:18:26.903Z,83.55
2018-11-26T12:19:07.480Z,83.84
2018-11-26T12:19:48.040Z,83.74
2018-11-26T12:20:28.595Z,83.65
2018-11-26T12:21:09.145Z,83.65
2018-11-26T12:21:49.706Z,83.36
2018-11-26T12:22:30.339Z,83.65
2018-11-26T12:23:10.903Z,83.55
2018-11-26T12:23:51.471Z,83.55
2018-11-26T12:24:32.024Z,83.55
2018-11-26T12:25:12.580Z,83.65
2018-11-26T12:25:53.135Z,83.46
2018-11-26T12:26:33.699Z,83.46
2018-11-26T12:27:14.255Z,83.27
2018-11-26T12:27:54.818Z,83.46
2018-11-26T12:28:35.375Z,83.74
2018-11-26T12:29:15.950Z,83.65
2018-11-26T12:29:56.506Z,83.74
2018-11-26T12:30:37.070Z,83.36
2018-11-26T12:31:17.702Z,83.74
2018-11-26T12:31:58.257Z,83.55
2018-11-26T12:32:38.837Z,84.12
2018-11-26T12:33:19.425Z,83.84
2018-11-26T12:34:00.050Z,84.31
2018-11-26T12:34:40.612Z,84.31
2018-11-26T12:35:21.371Z,84.03
2018-11-26T12:36:02.006Z,84.22
2018-11-26T12:36:42.557Z,84.22
2018-11-26T12:37:23.123Z,84.31
2018-11-26T12:38:03.677Z,84.03
2018-11-26T12:38:44.230Z,84.22
2018-11-26T12:39:24.790Z,84.12
2018-11-26T12:40:05.361Z,84.12
2018-11-26T12:40:45.917Z,84.31
2018-11-26T12:41:26.495Z,84.69
2018-11-26T12:42:07.046Z,84.41
2018-11-26T12:42:47.609Z,84.41
2018-11-26T12:43:28.178Z,84.59
2018-11-26T12:44:08.721Z,84.5
2018-11-26T12:44:49.283Z,84.41
2018-11-26T12:45:29.845Z,83.84
2018-11-26T12:46:10.526Z,84.12
2018-11-26T12:46:51.136Z,84.03
2018-11-26T12:47:31.716Z,83.84
2018-11-26T12:48:12.276Z,84.03
2018-11-26T12:48:52.854Z,84.22
2018-11-26T12:49:33.812Z,83.65
2018-11-26T12:50:14.582Z,83.74
2018-11-26T12:50:55.441Z,83.65
2018-11-26T12:51:36.066Z,83.65
2018-11-26T12:52:16.622Z,83.27
2018-11-26T12:52:57.177Z,83.36
2018-11-26T12:53:37.737Z,83.27
2018-11-26T12:54:18.295Z,83.17
2018-11-26T12:54:58.865Z,82.98
2018-11-26T12:55:39.428Z,83.17
2018-11-26T12:56:19.994Z,83.36
2018-11-26T12:57:00.577Z,82.79
2018-11-26T12:57:41.164Z,82.42
2018-11-26T12:58:21.761Z,82.79
2018-11-26T12:59:02.336Z,82.7
2018-11-26T12:59:42.928Z,82.79
2018-11-26T13:00:23.474Z,82.7
2018-11-26T13:01:04.030Z,81.94
2018-11-26T13:01:44.584Z,82.04
2018-11-26T13:02:25.157Z,82.32
2018-11-26T13:03:05.711Z,81.85